createdAt,value
2018-11-10T00:01:41.228Z,63.83
2018-11-10T00:04:11.236Z,61.83
2018-11-10T00:06:41.151Z,58.67
2018-11-10T00:09:11.120Z,64.43
2018-11-10T00:11:41.460Z,64.97
2018-11-10T00:14:11.554Z,62.07
2018-11-10T00:16:41.689Z,66.90
2018-11-10T00:19:11.679Z,70.37
2018-11-10T00:21:41.742Z,66.33
2018-11-10T00:24:11.726Z,74.97
2018-11-10T00:26:41.657Z,59.00
2018-11-10T00:29:11.728Z,55.90
2018-11-10T00:31:41.755Z,55.37
2018-11-10T00:34:11.708Z,59.87
2018-11-10T00:36:41.809Z,61.37
2018-11-10T00:39:11.924Z,54.83
2018-11-10T00:41:41.938Z,49.60
2018-11-10T00:44:11.926Z,57.30
2018-11-10T00:46:41.888Z,69.13
2018-11-10T00:49:12.024Z,63.13
2018-11-10T00:51:42.122Z,63.83
2018-11-10T00:54:12.147Z,70.50
2018-11-10T00:56:42.179Z,71.77
2018-11-10T00:59:12.197Z,74.43
2018-11-10T01:01:42.526Z,73.87
2018-11-10T01:04:13.038Z,61.13
2018-11-10T01:06:43.032Z,68.90
2018-11-10T01:09:13.070Z,67.03
2018-11-10T01:11:42.978Z,77.77
2018-11-10T01:14:13.059Z,67.90
2018-11-10T01:16:43.788Z,63.07
2018-11-10T01:19:13.747Z,63.10
2018-11-10T01:21:43.901Z,60.03
2018-11-10T01:24:13.872Z,68.60
2018-11-10T01:26:43.798Z,73.20
2018-11-10T01:29:14.698Z,70.00
2018-11-10T01:31:44.707Z,73.67
2018-11-10T01:34:14.700Z,78.33
2018-11-10T01:36:44.780Z,65.37
2018-11-10T01:39:14.635Z,63.80
2018-11-10T01:41:44.596Z,64.07
2018-11-10T01:44:14.605Z,64.70
2018-11-10T01:46:44.604Z,64.70
2018-11-10T01:49:14.736Z,76.83
2018-11-10T01:51:44.736Z,70.73
2018-11-10T01:54:15.315Z,76.60
2018-11-10T01:56:45.270Z,73.40
2018-11-10T01:59:15.320Z,78.83
2018-11-10T02:01:45.240Z,74.07
2018-11-10T02:04:15.188Z,60.13
2018-11-10T02:06:46.284Z,66.20
2018-11-10T02:09:16.132Z,69.00
2018-11-10T02:11:46.128Z,69.10
2018-11-10T02:14:16.172Z,64.27
2018-11-10T02:16:46.116Z,72.37
2018-11-10T02:19:16.155Z,63.70
2018-11-10T02:21:46.242Z,86.67
2018-11-10T02:24:16.141Z,75.60
2018-11-10T02:26:46.282Z,82.73
2018-11-10T02:29:16.271Z,71.77
2018-11-10T02:31:46.275Z,81.83
2018-11-10T02:34:16.277Z,42.47
2018-11-10T02:36:46.295Z,34.63
2018-11-10T02:39:16.296Z,41.50
2018-11-10T02:41:46.188Z,40.23
2018-11-10T02:44:16.137Z,46.00
2018-11-10T02:46:46.183Z,44.43
2018-11-10T02:49:17.200Z,48.63
2018-11-10T02:51:47.216Z,56.33
2018-11-10T02:54:17.250Z,58.50
2018-11-10T02:56:47.351Z,70.67
2018-11-10T02:59:17.354Z,69.67
2018-11-10T03:01:47.418Z,61.53
2018-11-10T03:04:17.511Z,61.90
2018-11-10T03:06:47.530Z,59.50
2018-11-10T03:09:17.475Z,61.13
2018-11-10T03:11:47.520Z,57.63
2018-11-10T03:14:19.451Z,62.93
2018-11-10T03:16:50.449Z,56.40
2018-11-10T03:19:20.292Z,59.30
2018-11-10T03:21:50.304Z,54.13
2018-11-10T03:24:20.178Z,54.73
2018-11-10T03:26:50.201Z,53.17
2018-11-10T03:29:20.214Z,51.87
2018-11-10T03:31:50.275Z,53.60
2018-11-10T03:34:20.211Z,50.10
2018-11-10T03:36:50.137Z,47.67
2018-11-10T03:39:20.029Z,46.50
2018-11-10T03:41:49.981Z,49.57
2018-11-10T03:44:19.854Z,50.50
2018-11-10T03:46:49.892Z,45.73
2018-11-10T03:49:19.874Z,43.83
2018-11-10T03:51:49.857Z,48.77
2018-11-10T03:54:19.819Z,48.87
2018-11-10T03:56:49.820Z,39.53
2018-11-10T03:59:20.098Z,43.70
2018-11-10T04:01:50.233Z,48.37
2018-11-10T04:04:20.217Z,44.73
2018-11-10T04:06:50.247Z,39.40
2018-11-10T04:09:20.123Z,34.40
2018-11-10T04:11:50.075Z,38.43
2018-11-10T04:14:20.184Z,35.83
2018-11-10T04:16:50.217Z,38.30
2018-11-10T04:19:20.208Z,37.63
2018-11-10T04:21:50.219Z,33.40
2018-11-10T04:24:20.192Z,32.73
2018-11-10T04:26:50.170Z,34.53
2018-11-10T04:29:20.178Z,34.53
2018-11-10T04:31:50.221Z,36.30
2018-11-10T04:34:20.306Z,38.70
2018-11-10T04:36:50.230Z,36.73
2018-11-10T04:39:20.300Z,33.80
2018-11-10T04:41:50.825Z,37.07
2018-11-10T04:44:20.908Z,36.93
2018-11-10T04:46:50.874Z,35.93
2018-11-10T04:49:20.744Z,38.80
2018-11-10T04:51:50.784Z,35.33
2018-11-10T04:54:20.792Z,34.23
2018-11-10T04:56:50.915Z,37.53
2018-11-10T04:59:20.855Z,34.10
2018-11-10T05:01:50.729Z,38.97
2018-11-10T05:04:20.781Z,38.07
2018-11-10T05:06:50.738Z,33.87
2018-11-10T05:09:20.676Z,37.50
2018-11-10T05:11:50.668Z,38.90
2018-11-10T05:14:20.523Z,35.80
2018-11-10T05:16:50.605Z,32.73
2018-11-10T05:19:20.614Z,31.77
2018-11-10T05:21:50.574Z,32.67
2018-11-10T05:24:20.565Z,29.00
2018-11-10T05:26:50.682Z,34.40
2018-11-10T05:29:20.683Z,36.17
2018-11-10T05:31:50.704Z,32.63
2018-11-10T05:34:20.865Z,37.70
2018-11-10T05:36:50.853Z,36.97
2018-11-10T05:39:20.757Z,33.33
2018-11-10T05:41:50.703Z,31.77
2018-11-10T05:44:20.674Z,30.80
2018-11-10T05:46:50.722Z,31.93
2018-11-10T05:49:20.749Z,34.03
2018-11-10T05:51:51.510Z,30.10
2018-11-10T05:54:22.196Z,34.37
2018-11-10T05:56:52.178Z,34.17
2018-11-10T05:59:22.051Z,31.03
2018-11-10T06:01:52.074Z,33.47
2018-11-10T06:04:22.144Z,33.53
2018-11-10T06:06:52.131Z,33.70
2018-11-10T06:09:22.414Z,30.77
2018-11-10T06:11:55.017Z,33.90
2018-11-10T06:14:25.605Z,33.33
2018-11-10T06:16:55.592Z,30.70
2018-11-10T06:19:25.938Z,34.13
2018-11-10T06:21:55.961Z,30.33
2018-11-10T06:24:25.902Z,34.10
2018-11-10T06:26:55.825Z,31.03
2018-11-10T06:29:25.978Z,30.00
2018-11-10T06:31:55.949Z,28.43
2018-11-10T06:34:25.926Z,26.13
2018-11-10T06:36:56.006Z,30.13
2018-11-10T06:39:25.884Z,31.40
2018-11-10T06:41:55.845Z,31.07
2018-11-10T06:44:25.783Z,30.40
2018-11-10T06:46:55.778Z,28.90
2018-11-10T06:49:25.752Z,30.83
2018-11-10T06:51:55.740Z,28.37
2018-11-10T06:54:25.758Z,26.50
2018-11-10T06:56:55.778Z,27.93
2018-11-10T06:59:25.695Z,21.63
2018-11-10T07:01:55.666Z,25.90
2018-11-10T07:04:25.655Z,39.37
2018-11-10T07:06:55.527Z,28.43
2018-11-10T07:09:25.595Z,51.00
2018-11-10T07:11:55.483Z,43.20
2018-11-10T07:14:25.435Z,30.20
2018-11-10T07:16:55.455Z,24.93
2018-11-10T07:19:25.441Z,25.50
2018-11-10T07:21:55.449Z,27.27
2018-11-10T07:24:25.464Z,23.70
2018-11-10T07:26:55.359Z,24.67
2018-11-10T07:29:25.312Z,23.77
2018-11-10T07:31:55.280Z,24.83
2018-11-10T07:34:25.322Z,23.70
2018-11-10T07:36:55.392Z,27.00
2018-11-10T07:39:25.390Z,25.87
2018-11-10T07:41:55.490Z,26.63
2018-11-10T07:44:25.902Z,21.23
2018-11-10T07:46:55.961Z,26.60
2018-11-10T07:49:26.217Z,25.83
2018-11-10T07:51:56.311Z,25.50
2018-11-10T07:54:26.322Z,24.87
2018-11-10T07:56:56.308Z,21.37
2018-11-10T07:59:26.291Z,22.80
2018-11-10T08:01:57.104Z,23.37
2018-11-10T08:04:27.148Z,25.47
2018-11-10T08:06:57.094Z,23.70
2018-11-10T08:09:27.056Z,25.53
2018-11-10T08:11:57.004Z,24.17
2018-11-10T08:14:26.967Z,22.60
2018-11-10T08:16:56.940Z,27.00
2018-11-10T08:19:26.867Z,25.83
2018-11-10T08:21:56.954Z,23.50
2018-11-10T08:24:27.606Z,29.77
2018-11-10T08:26:57.537Z,33.60
2018-11-10T08:29:27.516Z,25.87
2018-11-10T08:31:57.462Z,30.27
2018-11-10T08:34:27.403Z,24.83
2018-11-10T08:36:57.371Z,24.37
2018-11-10T08:39:27.334Z,27.33
2018-11-10T08:41:57.369Z,23.20
2018-11-10T08:44:27.458Z,24.67
2018-11-10T08:46:58.183Z,23.87
2018-11-10T08:49:28.302Z,28.57
2018-11-10T08:51:58.265Z,28.13
2018-11-10T08:54:28.395Z,26.17
2018-11-10T08:57:00.357Z,24.63
2018-11-10T08:59:33.454Z,25.00
2018-11-10T09:02:20.805Z,23.33
2018-11-10T09:04:51.828Z,23.87
2018-11-10T09:07:21.922Z,28.33
2018-11-10T09:09:52.062Z,31.73
2018-11-10T09:12:22.132Z,23.13
2018-11-10T09:14:52.090Z,23.83
2018-11-10T09:17:22.447Z,23.73
2018-11-10T09:19:52.404Z,22.23
2018-11-10T09:22:24.067Z,24.30
2018-11-10T09:24:54.345Z,21.77
2018-11-10T09:27:24.411Z,24.97
2018-11-10T09:29:55.601Z,26.23
2018-11-10T09:32:25.967Z,23.10
2018-11-10T09:34:56.005Z,21.73
2018-11-10T09:37:26.237Z,20.57
2018-11-10T09:39:56.205Z,22.67
2018-11-10T09:42:26.483Z,23.37
2018-11-10T09:44:56.373Z,18.90
2018-11-10T09:47:26.276Z,19.73
2018-11-10T09:49:56.281Z,16.30
2018-11-10T09:52:26.331Z,18.13
2018-11-10T09:54:57.862Z,16.37
2018-11-10T09:57:28.649Z,16.37
2018-11-10T09:59:58.740Z,14.30
2018-11-10T10:02:29.128Z,15.33
2018-11-10T10:04:58.715Z,15.63
2018-11-10T10:07:28.725Z,13.23
2018-11-10T10:09:58.805Z,14.03
2018-11-10T10:12:29.055Z,12.20
2018-11-10T10:14:58.997Z,17.70
2018-11-10T10:17:29.057Z,11.50
2018-11-10T10:19:59.139Z,13.13
2018-11-10T10:22:29.017Z,12.13
2018-11-10T10:24:59.242Z,15.00
2018-11-10T10:27:29.253Z,12.23
2018-11-10T10:29:59.269Z,11.90
2018-11-10T10:32:29.242Z,13.53
2018-11-10T10:35:00.302Z,10.67
2018-11-10T10:37:30.220Z,12.73
2018-11-10T10:40:00.194Z,10.53
2018-11-10T10:42:30.111Z,11.10
2018-11-10T10:45:00.088Z,17.80
2018-11-10T10:47:30.131Z,13.00
2018-11-10T10:50:00.335Z,11.03
2018-11-10T10:52:30.406Z,10.27
2018-11-10T10:55:02.008Z,12.00
2018-11-10T10:57:32.963Z,11.50
2018-11-10T11:00:03.040Z,10.87
2018-11-10T11:02:38.370Z,9.67
2018-11-10T11:05:15.908Z,9.40
2018-11-10T11:07:46.022Z,9.47
2018-11-10T11:10:16.849Z,8.47
2018-11-10T11:12:47.111Z,8.27
2018-11-10T11:15:17.132Z,8.30
2018-11-10T11:17:48.123Z,7.23
2018-11-10T11:20:18.670Z,10.20
2018-11-10T11:22:53.329Z,9.40
2018-11-10T11:25:23.676Z,8.03
2018-11-10T11:27:53.787Z,7.37
2018-11-10T11:30:23.899Z,6.87
2018-11-10T11:32:54.657Z,7.33
2018-11-10T11:35:24.728Z,7.87
2018-11-10T11:37:54.783Z,7.23
2018-11-10T11:40:24.775Z,6.27
2018-11-10T11:42:54.796Z,5.77
2018-11-10T11:45:27.186Z,6.37
2018-11-10T11:47:57.119Z,4.70
2018-11-10T11:50:27.525Z,6.70
2018-11-10T11:52:57.717Z,4.40
2018-11-10T11:55:31.164Z,4.90
2018-11-10T11:58:02.837Z,5.80
2018-11-10T12:00:33.540Z,5.30
2018-11-10T12:03:03.570Z,5.23
2018-11-10T12:05:33.608Z,4.50
2018-11-10T12:08:04.246Z,4.67
2018-11-10T12:10:34.559Z,5.10
2018-11-10T12:13:04.487Z,4.67
2018-11-10T12:15:34.547Z,8.10
2018-11-10T12:18:04.871Z,4.17
2018-11-10T12:20:34.886Z,4.50
2018-11-10T12:23:07.018Z,4.93
2018-11-10T12:25:37.507Z,3.67
2018-11-10T12:28:07.660Z,4.70
2018-11-10T12:30:37.660Z,3.87
2018-11-10T12:33:08.060Z,5.03
2018-11-10T12:35:38.369Z,4.10
2018-11-10T12:38:08.488Z,3.87
2018-11-10T12:40:38.392Z,3.77
2018-11-10T12:43:08.352Z,4.67
2018-11-10T12:45:38.402Z,5.70
2018-11-10T12:48:08.838Z,3.40
2018-11-10T12:50:39.936Z,3.73
2018-11-10T12:53:10.326Z,4.50
2018-11-10T12:55:44.404Z,4.70
2018-11-10T12:58:14.454Z,4.50
2018-11-10T13:00:44.469Z,5.30
2018-11-10T13:03:14.418Z,4.77
2018-11-10T13:05:47.247Z,4.47
2018-11-10T13:08:20.724Z,5.30
2018-11-10T13:10:51.895Z,4.03
2018-11-10T13:13:26.218Z,5.20
2018-11-10T13:15:56.149Z,6.30
2018-11-10T13:18:26.145Z,6.47
2018-11-10T13:20:56.119Z,9.83
2018-11-10T13:23:26.167Z,8.10
2018-11-10T13:25:56.948Z,10.67
2018-11-10T13:28:27.116Z,7.20
2018-11-10T13:30:57.173Z,8.33
2018-11-10T13:33:27.202Z,9.10
2018-11-10T13:35:57.185Z,8.13
2018-11-10T13:38:27.112Z,6.60
2018-11-10T13:40:57.160Z,8.77
2018-11-10T13:43:27.139Z,5.93
2018-11-10T13:45:57.209Z,7.50
2018-11-10T13:48:27.244Z,3.07
2018-11-10T13:50:58.445Z,4.40
2018-11-10T13:53:28.303Z,3.83
2018-11-10T13:55:58.379Z,4.50
2018-11-10T13:58:28.437Z,3.53
2018-11-10T14:00:58.414Z,2.00
2018-11-10T14:03:28.309Z,4.07
2018-11-10T14:05:58.408Z,2.90
2018-11-10T14:08:28.355Z,2.17
2018-11-10T14:10:58.368Z,2.17
2018-11-10T14:13:28.432Z,3.47
2018-11-10T14:15:58.368Z,3.63
2018-11-10T14:18:28.357Z,8.17
2018-11-10T14:20:58.319Z,3.60
2018-11-10T14:23:28.260Z,6.33
2018-11-10T14:25:58.227Z,10.03
2018-11-10T14:28:28.175Z,9.80
2018-11-10T14:30:58.154Z,12.07
2018-11-10T14:33:28.370Z,11.17
2018-11-10T14:35:58.378Z,12.30
2018-11-10T14:38:28.297Z,12.77
2018-11-10T14:40:58.327Z,16.17
2018-11-10T14:43:28.688Z,15.40
2018-11-10T14:45:58.668Z,15.93
2018-11-10T14:48:28.586Z,16.50
2018-11-10T14:50:58.571Z,17.57
2018-11-10T14:53:28.521Z,14.40
2018-11-10T14:55:58.534Z,14.57
2018-11-10T14:58:28.544Z,14.83
2018-11-10T15:00:58.542Z,14.07
2018-11-10T15:03:28.665Z,15.50
2018-11-10T15:05:58.683Z,16.33
2018-11-10T15:08:28.672Z,16.13
2018-11-10T15:10:58.645Z,15.37
2018-11-10T15:13:28.569Z,17.33
2018-11-10T15:15:58.576Z,17.77
2018-11-10T15:18:28.762Z,15.63
2018-11-10T15:20:58.653Z,15.03
2018-11-10T15:23:28.617Z,20.83
2018-11-10T15:25:58.601Z,17.50
2018-11-10T15:28:28.586Z,17.87
2018-11-10T15:30:58.511Z,20.83
2018-11-10T15:33:28.518Z,15.13
2018-11-10T15:35:58.438Z,22.23
2018-11-10T15:38:28.537Z,15.43
2018-11-10T15:40:58.572Z,15.13
2018-11-10T15:43:28.612Z,14.43
2018-11-10T15:45:58.535Z,16.00
2018-11-10T15:48:28.428Z,15.30
2018-11-10T15:50:58.319Z,16.93
2018-11-10T15:53:28.369Z,15.07
2018-11-10T15:55:58.405Z,12.43
2018-11-10T15:58:28.376Z,14.73
2018-11-10T16:00:58.559Z,14.00
2018-11-10T16:03:28.579Z,13.50
2018-11-10T16:05:58.658Z,12.90
2018-11-10T16:08:28.876Z,13.40
2018-11-10T16:10:58.961Z,16.70
2018-11-10T16:13:28.914Z,14.97
2018-11-10T16:15:58.932Z,11.33
2018-11-10T16:18:28.965Z,11.93
2018-11-10T16:20:59.012Z,10.97
2018-11-10T16:23:28.948Z,14.40
2018-11-10T16:25:59.004Z,11.03
2018-11-10T16:28:29.023Z,12.70
2018-11-10T16:30:58.914Z,10.97
2018-11-10T16:33:28.762Z,10.30
2018-11-10T16:35:58.867Z,10.40
2018-11-10T16:38:28.814Z,8.57
2018-11-10T16:40:58.861Z,9.70
2018-11-10T16:43:28.861Z,10.57
2018-11-10T16:45:59.071Z,11.37
2018-11-10T16:48:29.142Z,11.53
2018-11-10T16:50:59.213Z,12.03
2018-11-10T16:53:31.228Z,9.50
2018-11-10T16:56:01.252Z,12.70
2018-11-10T16:58:32.256Z,11.77
2018-11-10T17:01:02.269Z,14.40
2018-11-10T17:03:32.363Z,20.57
2018-11-10T17:06:02.365Z,15.33
2018-11-10T17:08:32.488Z,16.57
2018-11-10T17:11:02.487Z,18.50
2018-11-10T17:13:32.523Z,16.87
2018-11-10T17:16:02.362Z,16.73
2018-11-10T17:18:32.306Z,13.20
2018-11-10T17:21:02.241Z,11.97
2018-11-10T17:23:32.326Z,15.80
2018-11-10T17:26:02.884Z,17.20
2018-11-10T17:28:32.988Z,17.10
2018-11-10T17:31:03.149Z,17.63
2018-11-10T17:33:33.160Z,19.67
2018-11-10T17:36:03.210Z,20.47
2018-11-10T17:38:33.286Z,18.63
2018-11-10T17:41:03.222Z,18.90
2018-11-10T17:43:33.175Z,15.60
2018-11-10T17:46:03.186Z,18.37
2018-11-10T17:48:33.387Z,15.40
2018-11-10T17:51:03.340Z,17.10
2018-11-10T17:53:33.347Z,15.77
2018-11-10T17:56:03.350Z,14.90
2018-11-10T17:58:33.316Z,12.50
2018-11-10T18:01:03.218Z,13.50
2018-11-10T18:03:33.451Z,18.03
2018-11-10T18:06:03.689Z,14.73
2018-11-10T18:08:33.666Z,19.97
2018-11-10T18:11:03.568Z,16.53
2018-11-10T18:13:33.542Z,24.73
2018-11-10T18:16:03.680Z,19.57
2018-11-10T18:18:33.837Z,21.90
2018-11-10T18:21:03.867Z,17.93
2018-11-10T18:23:33.967Z,15.60
2018-11-10T18:26:04.030Z,15.07
2018-11-10T18:28:34.049Z,18.33
2018-11-10T18:31:05.222Z,16.43
2018-11-10T18:33:35.324Z,18.50
2018-11-10T18:36:05.511Z,16.07
2018-11-10T18:38:35.562Z,17.53
2018-11-10T18:41:05.634Z,17.63
2018-11-10T18:43:35.646Z,26.17
2018-11-10T18:46:05.922Z,16.70
2018-11-10T18:48:36.918Z,18.77
2018-11-10T18:51:07.015Z,21.40
2018-11-10T18:53:37.382Z,26.10
2018-11-10T18:56:07.622Z,30.77
2018-11-10T18:58:37.632Z,28.57
2018-11-10T19:01:07.759Z,25.70
2018-11-10T19:03:37.712Z,26.13
2018-11-10T19:06:08.023Z,26.63
2018-11-10T19:08:38.085Z,22.23
2018-11-10T19:11:09.229Z,22.63
2018-11-10T19:13:39.375Z,25.67
2018-11-10T19:16:10.561Z,23.13
2018-11-10T19:18:40.996Z,21.63
2018-11-10T19:21:11.410Z,23.23
2018-11-10T19:23:42.287Z,23.30
2018-11-10T19:26:12.718Z,24.57
2018-11-10T19:28:43.805Z,25.27
2018-11-10T19:31:14.114Z,23.00
2018-11-10T19:33:44.743Z,23.13
2018-11-10T19:36:14.690Z,22.63
2018-11-10T19:38:44.672Z,23.73
2018-11-10T19:41:14.683Z,25.63
2018-11-10T19:43:44.678Z,22.73
2018-11-10T19:46:14.714Z,23.33
2018-11-10T19:48:44.605Z,25.03
2018-11-10T19:51:15.996Z,26.23
2018-11-10T19:53:45.948Z,31.47
2018-11-10T19:56:17.862Z,29.90
2018-11-10T19:58:47.830Z,27.30
2018-11-10T20:01:17.825Z,31.37
2018-11-10T20:03:47.929Z,31.07
2018-11-10T20:06:17.888Z,31.63
2018-11-10T20:08:47.836Z,26.10
2018-11-10T20:11:17.798Z,29.80
2018-11-10T20:13:47.684Z,30.10
2018-11-10T20:16:17.662Z,36.87
2018-11-10T20:18:47.608Z,32.97
2018-11-10T20:21:17.606Z,33.17
2018-11-10T20:23:47.664Z,29.97
2018-11-10T20:26:17.597Z,30.60
2018-11-10T20:28:47.489Z,28.87
2018-11-10T20:31:17.593Z,28.63
2018-11-10T20:33:47.496Z,27.77
2018-11-10T20:36:17.494Z,28.57
2018-11-10T20:38:47.591Z,30.70
2018-11-10T20:41:17.562Z,29.33
2018-11-10T20:43:47.515Z,30.90
2018-11-10T20:46:17.556Z,29.77
2018-11-10T20:48:47.589Z,30.70
2018-11-10T20:51:17.663Z,28.23
2018-11-10T20:53:47.594Z,27.43
2018-11-10T20:56:17.480Z,28.93
2018-11-10T20:58:47.414Z,26.97
2018-11-10T21:01:18.140Z,27.03
2018-11-10T21:03:48.076Z,24.43
2018-11-10T21:06:18.152Z,23.73
2018-11-10T21:08:48.183Z,21.67
2018-11-10T21:11:18.531Z,23.57
2018-11-10T21:13:48.528Z,24.13
2018-11-10T21:16:18.483Z,13.37
2018-11-10T21:18:48.377Z,16.40
2018-11-10T21:21:18.386Z,13.97
2018-11-10T21:23:48.539Z,14.43
2018-11-10T21:26:18.488Z,13.80
2018-11-10T21:28:48.668Z,14.37
2018-11-10T21:31:18.801Z,19.80
2018-11-10T21:33:48.864Z,17.03
2018-11-10T21:36:18.770Z,13.13
2018-11-10T21:38:48.829Z,11.67
2018-11-10T21:41:19.815Z,16.40
2018-11-10T21:43:49.828Z,18.27
2018-11-10T21:46:20.868Z,23.53
2018-11-10T21:48:50.808Z,22.33
2018-11-10T21:51:20.828Z,23.10
2018-11-10T21:53:51.211Z,23.80
2018-11-10T21:56:21.251Z,26.30
2018-11-10T21:58:51.442Z,24.93
2018-11-10T22:01:21.400Z,23.37
2018-11-10T22:03:51.847Z,24.30
2018-11-10T22:06:21.981Z,20.27
2018-11-10T22:08:52.178Z,20.10
2018-11-10T22:11:22.170Z,17.73
2018-11-10T22:13:52.290Z,14.80
2018-11-10T22:16:22.353Z,21.93
2018-11-10T22:18:52.419Z,22.63
2018-11-10T22:21:22.336Z,16.27
2018-11-10T22:23:52.590Z,12.40
2018-11-10T22:26:22.582Z,11.13
2018-11-10T22:28:52.616Z,14.23
2018-11-10T22:31:23.071Z,11.43
2018-11-10T22:33:53.875Z,13.10
2018-11-10T22:36:23.790Z,11.53
2018-11-10T22:38:54.132Z,13.43
2018-11-10T22:41:24.096Z,10.83
2018-11-10T22:43:54.384Z,11.53
2018-11-10T22:46:24.421Z,13.53
2018-11-10T22:48:54.444Z,15.03
2018-11-10T22:51:24.479Z,13.10
2018-11-10T22:53:55.148Z,13.13
2018-11-10T22:56:25.281Z,12.87
2018-11-10T22:58:55.813Z,11.17
2018-11-10T23:01:32.833Z,8.10
2018-11-10T23:04:02.968Z,11.53
2018-11-10T23:06:33.001Z,10.90
2018-11-10T23:09:03.732Z,9.70
2018-11-10T23:11:33.799Z,11.03
2018-11-10T23:14:04.031Z,11.47
2018-11-10T23:16:33.973Z,12.87
2018-11-10T23:19:04.714Z,10.17
2018-11-10T23:21:34.809Z,11.50
2018-11-10T23:24:05.473Z,12.23
2018-11-10T23:26:35.583Z,12.13
2018-11-10T23:29:05.949Z,13.17
2018-11-10T23:31:36.024Z,15.63
2018-11-10T23:34:06.388Z,14.10
2018-11-10T23:36:43.025Z,12.37
2018-11-10T23:39:17.375Z,13.87
2018-11-10T23:41:54.061Z,11.97
2018-11-10T23:44:25.268Z,15.60
2018-11-10T23:46:59.126Z,13.33
2018-11-10T23:49:29.789Z,18.47
2018-11-10T23:52:00.163Z,20.17
2018-11-10T23:54:30.118Z,16.23
2018-11-10T23:57:00.232Z,18.63
2018-11-10T23:59:30.284Z,16.60
